sensor_id;sensor_type;location;lat;lon;timestamp;P1;durP1;ratioP1;P2;durP2;ratioP2
25913;SDS011;13718;50.922;5.346;2022-09-09T00:01:54;4.15;;;1.27;;
25913;SDS011;13718;50.922;5.346;2022-09-09T00:04:37;6.57;;;1.83;;
25913;SDS011;13718;50.922;5.346;2022-09-09T00:15:13;3.20;;;1.20;;
25913;SDS011;13718;50.922;5.346;2022-09-09T00:17:49;6.82;;;1.42;;
25913;SDS011;13718;50.922;5.346;2022-09-09T00:23:11;5.38;;;1.33;;
25913;SDS011;13718;50.922;5.346;2022-09-09T00:25:49;3.67;;;1.30;;
25913;SDS011;13718;50.922;5.346;2022-09-09T00:28:19;4.43;;;1.50;;
25913;SDS011;13718;50.922;5.346;2022-09-09T00:30:49;8.15;;;1.15;;
25913;SDS011;13718;50.922;5.346;2022-09-09T00:33:16;4.13;;;1.20;;
25913;SDS011;13718;50.922;5.346;2022-09-09T00:35:53;4.85;;;1.30;;
25913;SDS011;13718;50.922;5.346;2022-09-09T00:38:35;5.63;;;1.30;;
25913;SDS011;13718;50.922;5.346;2022-09-09T00:41:09;6.47;;;1.17;;
25913;SDS011;13718;50.922;5.346;2022-09-09T00:43:42;6.38;;;1.40;;
25913;SDS011;13718;50.922;5.346;2022-09-09T00:49:34;7.47;;;1.50;;
25913;SDS011;13718;50.922;5.346;2022-09-09T00:54:55;12.32;;;2.03;;
25913;SDS011;13718;50.922;5.346;2022-09-09T00:57:36;4.70;;;1.38;;
25913;SDS011;13718;50.922;5.346;2022-09-09T01:03:05;7.30;;;1.40;;
25913;SDS011;13718;50.922;5.346;2022-09-09T01:05:46;6.10;;;1.30;;
25913;SDS011;13718;50.922;5.346;2022-09-09T01:11:25;5.80;;;1.30;;
25913;SDS011;13718;50.922;5.346;2022-09-09T01:14:00;8.02;;;1.42;;
25913;SDS011;13718;50.922;5.346;2022-09-09T01:16:43;6.85;;;1.30;;
25913;SDS011;13718;50.922;5.346;2022-09-09T01:19:10;2.95;;;1.20;;
25913;SDS011;13718;50.922;5.346;2022-09-09T01:21:56;11.73;;;1.60;;
25913;SDS011;13718;50.922;5.346;2022-09-09T01:24:33;6.40;;;1.20;;
25913;SDS011;13718;50.922;5.346;2022-09-09T01:27:21;9.07;;;1.50;;
25913;SDS011;13718;50.922;5.346;2022-09-09T01:29:48;6.43;;;1.73;;
25913;SDS011;13718;50.922;5.346;2022-09-09T01:35:10;9.45;;;1.55;;
25913;SDS011;13718;50.922;5.346;2022-09-09T01:37:46;8.68;;;1.27;;
25913;SDS011;13718;50.922;5.346;2022-09-09T01:40:12;4.30;;;2.05;;
25913;SDS011;13718;50.922;5.346;2022-09-09T01:42:37;4.78;;;1.40;;
25913;SDS011;13718;50.922;5.346;2022-09-09T01:45:03;11.48;;;1.70;;
25913;SDS011;13718;50.922;5.346;2022-09-09T01:47:29;7.65;;;1.63;;
25913;SDS011;13718;50.922;5.346;2022-09-09T01:49:55;7.10;;;1.40;;
25913;SDS011;13718;50.922;5.346;2022-09-09T01:52:20;8.45;;;1.88;;
25913;SDS011;13718;50.922;5.346;2022-09-09T01:54:46;5.07;;;1.90;;
25913;SDS011;13718;50.922;5.346;2022-09-09T02:02:35;5.47;;;1.83;;
25913;SDS011;13718;50.922;5.346;2022-09-09T02:08:28;5.32;;;2.08;;
25913;SDS011;13718;50.922;5.346;2022-09-09T02:13:36;4.80;;;1.70;;
25913;SDS011;13718;50.922;5.346;2022-09-09T02:16:07;8.63;;;1.83;;
25913;SDS011;13718;50.922;5.346;2022-09-09T02:21:03;6.90;;;1.77;;
25913;SDS011;13718;50.922;5.346;2022-09-09T02:23:30;13.52;;;2.78;;
25913;SDS011;13718;50.922;5.346;2022-09-09T02:25:58;9.07;;;2.35;;
25913;SDS011;13718;50.922;5.346;2022-09-09T02:28:25;9.73;;;2.10;;
25913;SDS011;13718;50.922;5.346;2022-09-09T02:30:54;7.90;;;1.80;;
25913;SDS011;13718;50.922;5.346;2022-09-09T02:33:22;8.93;;;2.13;;
25913;SDS011;13718;50.922;5.346;2022-09-09T02:35:51;9.05;;;2.63;;
25913;SDS011;13718;50.922;5.346;2022-09-09T02:38:19;9.00;;;2.00;;
25913;SDS011;13718;50.922;5.346;2022-09-09T02:40:47;13.10;;;2.30;;
25913;SDS011;13718;50.922;5.346;2022-09-09T02:43:14;7.78;;;2.00;;
25913;SDS011;13718;50.922;5.346;2022-09-09T02:45:42;9.70;;;1.98;;
25913;SDS011;13718;50.922;5.346;2022-09-09T02:48:44;13.27;;;2.00;;
25913;SDS011;13718;50.922;5.346;2022-09-09T02:58:50;8.48;;;1.85;;
25913;SDS011;13718;50.922;5.346;2022-09-09T03:01:16;10.73;;;1.63;;
25913;SDS011;13718;50.922;5.346;2022-09-09T03:03:42;11.70;;;2.22;;
25913;SDS011;13718;50.922;5.346;2022-09-09T03:06:09;10.88;;;1.67;;
25913;SDS011;13718;50.922;5.346;2022-09-09T03:08:36;8.40;;;1.90;;
25913;SDS011;13718;50.922;5.346;2022-09-09T03:11:02;8.88;;;1.98;;
25913;SDS011;13718;50.922;5.346;2022-09-09T03:13:28;8.15;;;2.10;;
25913;SDS011;13718;50.922;5.346;2022-09-09T03:15:54;9.82;;;2.65;;
25913;SDS011;13718;50.922;5.346;2022-09-09T03:18:20;7.47;;;1.88;;
25913;SDS011;13718;50.922;5.346;2022-09-09T03:20:46;9.50;;;2.40;;
25913;SDS011;13718;50.922;5.346;2022-09-09T03:23:15;12.90;;;1.65;;
25913;SDS011;13718;50.922;5.346;2022-09-09T03:25:51;7.63;;;1.40;;
25913;SDS011;13718;50.922;5.346;2022-09-09T03:28:17;8.50;;;1.70;;
25913;SDS011;13718;50.922;5.346;2022-09-09T03:30:43;9.90;;;2.30;;
25913;SDS011;13718;50.922;5.346;2022-09-09T03:33:09;7.90;;;1.90;;
25913;SDS011;13718;50.922;5.346;2022-09-09T03:35:34;10.00;;;1.70;;
25913;SDS011;13718;50.922;5.346;2022-09-09T03:38:00;7.57;;;1.27;;
25913;SDS011;13718;50.922;5.346;2022-09-09T03:40:25;7.18;;;1.38;;
25913;SDS011;13718;50.922;5.346;2022-09-09T03:42:51;9.77;;;1.52;;
25913;SDS011;13718;50.922;5.346;2022-09-09T03:45:17;5.40;;;1.23;;
25913;SDS011;13718;50.922;5.346;2022-09-09T03:47:43;8.43;;;1.27;;
25913;SDS011;13718;50.922;5.346;2022-09-09T03:50:08;7.43;;;1.52;;
25913;SDS011;13718;50.922;5.346;2022-09-09T03:52:39;5.30;;;1.55;;
25913;SDS011;13718;50.922;5.346;2022-09-09T03:55:06;8.48;;;1.35;;
25913;SDS011;13718;50.922;5.346;2022-09-09T03:57:32;13.85;;;1.50;;
25913;SDS011;13718;50.922;5.346;2022-09-09T04:00:00;8.85;;;2.38;;
25913;SDS011;13718;50.922;5.346;2022-09-09T04:02:28;7.60;;;2.00;;
25913;SDS011;13718;50.922;5.346;2022-09-09T04:04:53;9.55;;;1.63;;
25913;SDS011;13718;50.922;5.346;2022-09-09T04:07:19;9.00;;;1.42;;
25913;SDS011;13718;50.922;5.346;2022-09-09T04:09:45;6.47;;;1.40;;
25913;SDS011;13718;50.922;5.346;2022-09-09T04:12:10;9.05;;;1.95;;
25913;SDS011;13718;50.922;5.346;2022-09-09T04:14:38;10.20;;;4.53;;
25913;SDS011;13718;50.922;5.346;2022-09-09T04:17:03;8.23;;;1.50;;
25913;SDS011;13718;50.922;5.346;2022-09-09T04:19:31;15.05;;;1.80;;
25913;SDS011;13718;50.922;5.346;2022-09-09T04:21:57;8.70;;;1.90;;
25913;SDS011;13718;50.922;5.346;2022-09-09T04:24:22;7.03;;;1.63;;
25913;SDS011;13718;50.922;5.346;2022-09-09T04:26:49;7.43;;;1.30;;
25913;SDS011;13718;50.922;5.346;2022-09-09T04:29:15;7.20;;;1.60;;
25913;SDS011;13718;50.922;5.346;2022-09-09T04:31:41;8.45;;;1.58;;
25913;SDS011;13718;50.922;5.346;2022-09-09T04:34:07;9.73;;;1.85;;
25913;SDS011;13718;50.922;5.346;2022-09-09T04:36:36;7.75;;;1.67;;
25913;SDS011;13718;50.922;5.346;2022-09-09T04:39:01;12.57;;;1.85;;
25913;SDS011;13718;50.922;5.346;2022-09-09T04:41:27;5.57;;;1.40;;
25913;SDS011;13718;50.922;5.346;2022-09-09T04:43:53;6.30;;;1.63;;
25913;SDS011;13718;50.922;5.346;2022-09-09T04:46:20;8.98;;;1.50;;
25913;SDS011;13718;50.922;5.346;2022-09-09T04:48:48;14.05;;;2.00;;
25913;SDS011;13718;50.922;5.346;2022-09-09T04:51:14;17.58;;;1.98;;
25913;SDS011;13718;50.922;5.346;2022-09-09T04:53:40;11.43;;;1.67;;
25913;SDS011;13718;50.922;5.346;2022-09-09T04:56:10;6.93;;;1.77;;
25913;SDS011;13718;50.922;5.346;2022-09-09T04:58:37;5.80;;;1.80;;
25913;SDS011;13718;50.922;5.346;2022-09-09T05:03:42;8.95;;;1.70;;
25913;SDS011;13718;50.922;5.346;2022-09-09T05:06:10;8.23;;;1.65;;
25913;SDS011;13718;50.922;5.346;2022-09-09T05:08:38;6.25;;;1.80;;
25913;SDS011;13718;50.922;5.346;2022-09-09T05:11:18;12.77;;;1.70;;
25913;SDS011;13718;50.922;5.346;2022-09-09T05:13:54;10.50;;;1.88;;
25913;SDS011;13718;50.922;5.346;2022-09-09T05:16:21;6.50;;;1.90;;
25913;SDS011;13718;50.922;5.346;2022-09-09T05:18:47;7.35;;;1.73;;
25913;SDS011;13718;50.922;5.346;2022-09-09T05:21:15;8.93;;;1.85;;
25913;SDS011;13718;50.922;5.346;2022-09-09T05:23:42;13.38;;;2.10;;
25913;SDS011;13718;50.922;5.346;2022-09-09T05:26:09;10.05;;;2.10;;
25913;SDS011;13718;50.922;5.346;2022-09-09T05:28:38;11.73;;;1.70;;
25913;SDS011;13718;50.922;5.346;2022-09-09T05:31:04;7.95;;;1.80;;
25913;SDS011;13718;50.922;5.346;2022-09-09T05:33:33;12.85;;;2.47;;
25913;SDS011;13718;50.922;5.346;2022-09-09T05:36:03;12.00;;;2.63;;
25913;SDS011;13718;50.922;5.346;2022-09-09T05:38:31;10.48;;;2.03;;
25913;SDS011;13718;50.922;5.346;2022-09-09T05:40:58;11.60;;;1.95;;
25913;SDS011;13718;50.922;5.346;2022-09-09T05:43:24;10.38;;;1.60;;
25913;SDS011;13718;50.922;5.346;2022-09-09T05:46:00;11.57;;;1.67;;
25913;SDS011;13718;50.922;5.346;2022-09-09T05:48:37;8.57;;;1.85;;
25913;SDS011;13718;50.922;5.346;2022-09-09T05:51:05;11.60;;;2.00;;
25913;SDS011;13718;50.922;5.346;2022-09-09T05:53:32;10.18;;;1.90;;
25913;SDS011;13718;50.922;5.346;2022-09-09T05:56:03;13.60;;;2.00;;
25913;SDS011;13718;50.922;5.346;2022-09-09T05:58:29;13.98;;;2.10;;
25913;SDS011;13718;50.922;5.346;2022-09-09T06:01:12;12.07;;;1.75;;
25913;SDS011;13718;50.922;5.346;2022-09-09T06:03:41;15.00;;;2.75;;
25913;SDS011;13718;50.922;5.346;2022-09-09T06:06:08;7.75;;;1.80;;
25913;SDS011;13718;50.922;5.346;2022-09-09T06:08:38;11.30;;;1.85;;
25913;SDS011;13718;50.922;5.346;2022-09-09T06:11:08;6.13;;;1.48;;
25913;SDS011;13718;50.922;5.346;2022-09-09T06:13:44;9.80;;;1.83;;
25913;SDS011;13718;50.922;5.346;2022-09-09T06:16:11;10.23;;;1.65;;
25913;SDS011;13718;50.922;5.346;2022-09-09T06:18:39;12.48;;;2.25;;
25913;SDS011;13718;50.922;5.346;2022-09-09T06:21:14;16.77;;;1.83;;
25913;SDS011;13718;50.922;5.346;2022-09-09T06:23:41;11.02;;;1.38;;
25913;SDS011;13718;50.922;5.346;2022-09-09T06:26:09;11.38;;;2.10;;
25913;SDS011;13718;50.922;5.346;2022-09-09T06:28:37;10.48;;;1.73;;
25913;SDS011;13718;50.922;5.346;2022-09-09T06:31:05;9.13;;;1.83;;
25913;SDS011;13718;50.922;5.346;2022-09-09T06:33:36;9.38;;;1.65;;
25913;SDS011;13718;50.922;5.346;2022-09-09T06:36:04;9.10;;;1.50;;
25913;SDS011;13718;50.922;5.346;2022-09-09T06:38:31;15.15;;;2.00;;
25913;SDS011;13718;50.922;5.346;2022-09-09T06:40:58;11.48;;;1.60;;
25913;SDS011;13718;50.922;5.346;2022-09-09T06:43:27;6.30;;;1.35;;
25913;SDS011;13718;50.922;5.346;2022-09-09T06:45:54;10.48;;;1.80;;
25913;SDS011;13718;50.922;5.346;2022-09-09T06:48:21;6.35;;;1.55;;
25913;SDS011;13718;50.922;5.346;2022-09-09T06:50:46;11.27;;;1.70;;
25913;SDS011;13718;50.922;5.346;2022-09-09T06:53:16;9.00;;;1.75;;
25913;SDS011;13718;50.922;5.346;2022-09-09T06:55:44;9.98;;;1.35;;
25913;SDS011;13718;50.922;5.346;2022-09-09T06:58:10;5.93;;;1.55;;
25913;SDS011;13718;50.922;5.346;2022-09-09T07:00:36;11.20;;;1.23;;
25913;SDS011;13718;50.922;5.346;2022-09-09T07:03:04;9.65;;;1.42;;
25913;SDS011;13718;50.922;5.346;2022-09-09T07:05:31;6.60;;;1.33;;
25913;SDS011;13718;50.922;5.346;2022-09-09T07:07:56;8.20;;;1.33;;
25913;SDS011;13718;50.922;5.346;2022-09-09T07:10:23;8.30;;;1.40;;
25913;SDS011;13718;50.922;5.346;2022-09-09T07:12:52;5.78;;;1.17;;
25913;SDS011;13718;50.922;5.346;2022-09-09T07:15:20;10.68;;;1.42;;
25913;SDS011;13718;50.922;5.346;2022-09-09T07:17:47;13.40;;;2.05;;
25913;SDS011;13718;50.922;5.346;2022-09-09T07:20:13;6.53;;;1.10;;
25913;SDS011;13718;50.922;5.346;2022-09-09T07:22:40;8.73;;;1.40;;
25913;SDS011;13718;50.922;5.346;2022-09-09T07:25:06;11.13;;;1.50;;
25913;SDS011;13718;50.922;5.346;2022-09-09T07:27:32;10.90;;;1.50;;
25913;SDS011;13718;50.922;5.346;2022-09-09T07:29:58;11.30;;;1.48;;
25913;SDS011;13718;50.922;5.346;2022-09-09T07:32:24;9.27;;;1.40;;
25913;SDS011;13718;50.922;5.346;2022-09-09T07:34:50;8.75;;;1.63;;
25913;SDS011;13718;50.922;5.346;2022-09-09T07:37:16;11.10;;;1.63;;
25913;SDS011;13718;50.922;5.346;2022-09-09T07:39:43;9.23;;;1.13;;
25913;SDS011;13718;50.922;5.346;2022-09-09T07:42:09;10.40;;;1.50;;
25913;SDS011;13718;50.922;5.346;2022-09-09T07:44:36;7.45;;;1.23;;
25913;SDS011;13718;50.922;5.346;2022-09-09T07:47:04;5.40;;;1.20;;
25913;SDS011;13718;50.922;5.346;2022-09-09T07:49:30;8.95;;;1.20;;
25913;SDS011;13718;50.922;5.346;2022-09-09T07:51:57;11.05;;;1.15;;
25913;SDS011;13718;50.922;5.346;2022-09-09T07:54:24;12.52;;;1.40;;
25913;SDS011;13718;50.922;5.346;2022-09-09T07:56:50;8.23;;;1.25;;
25913;SDS011;13718;50.922;5.346;2022-09-09T07:59:16;11.32;;;1.50;;
25913;SDS011;13718;50.922;5.346;2022-09-09T08:01:43;5.40;;;1.05;;
25913;SDS011;13718;50.922;5.346;2022-09-09T08:04:15;11.43;;;1.20;;
25913;SDS011;13718;50.922;5.346;2022-09-09T08:06:43;7.65;;;1.40;;
25913;SDS011;13718;50.922;5.346;2022-09-09T08:09:11;10.80;;;1.60;;
25913;SDS011;13718;50.922;5.346;2022-09-09T08:11:38;8.15;;;1.50;;
25913;SDS011;13718;50.922;5.346;2022-09-09T08:14:04;10.10;;;1.30;;
25913;SDS011;13718;50.922;5.346;2022-09-09T08:16:34;11.57;;;1.58;;
25913;SDS011;13718;50.922;5.346;2022-09-09T08:19:02;7.25;;;1.20;;
25913;SDS011;13718;50.922;5.346;2022-09-09T08:21:29;11.65;;;1.83;;
25913;SDS011;13718;50.922;5.346;2022-09-09T08:23:57;4.47;;;1.30;;
25913;SDS011;13718;50.922;5.346;2022-09-09T08:26:25;7.97;;;1.33;;
25913;SDS011;13718;50.922;5.346;2022-09-09T08:28:54;14.35;;;1.77;;
25913;SDS011;13718;50.922;5.346;2022-09-09T08:31:25;5.05;;;1.00;;
25913;SDS011;13718;50.922;5.346;2022-09-09T08:33:55;6.25;;;1.30;;
25913;SDS011;13718;50.922;5.346;2022-09-09T08:36:23;9.73;;;1.98;;
25913;SDS011;13718;50.922;5.346;2022-09-09T08:38:51;11.30;;;1.48;;
25913;SDS011;13718;50.922;5.346;2022-09-09T08:49:33;9.98;;;1.50;;
25913;SDS011;13718;50.922;5.346;2022-09-09T08:52:28;9.75;;;1.60;;
25913;SDS011;13718;50.922;5.346;2022-09-09T08:58:09;9.35;;;1.27;;
25913;SDS011;13718;50.922;5.346;2022-09-09T09:09:02;8.83;;;1.57;;
25913;SDS011;13718;50.922;5.346;2022-09-09T09:11:50;6.72;;;1.20;;
25913;SDS011;13718;50.922;5.346;2022-09-09T09:14:26;7.45;;;1.55;;
25913;SDS011;13718;50.922;5.346;2022-09-09T09:17:00;5.63;;;1.10;;
25913;SDS011;13718;50.922;5.346;2022-09-09T09:19:32;10.63;;;1.40;;
25913;SDS011;13718;50.922;5.346;2022-09-09T09:24:55;12.00;;;1.55;;
25913;SDS011;13718;50.922;5.346;2022-09-09T09:30:14;7.43;;;0.90;;
25913;SDS011;13718;50.922;5.346;2022-09-09T09:32:53;5.70;;;1.40;;
25913;SDS011;13718;50.922;5.346;2022-09-09T09:35:21;6.22;;;1.10;;
25913;SDS011;13718;50.922;5.346;2022-09-09T09:37:46;4.63;;;1.30;;
25913;SDS011;13718;50.922;5.346;2022-09-09T09:40:22;7.80;;;1.08;;
25913;SDS011;13718;50.922;5.346;2022-09-09T09:42:57;6.10;;;1.13;;
25913;SDS011;13718;50.922;5.346;2022-09-09T09:48:20;6.25;;;1.08;;
25913;SDS011;13718;50.922;5.346;2022-09-09T09:50:58;3.25;;;1.20;;
25913;SDS011;13718;50.922;5.346;2022-09-09T09:53:32;4.72;;;1.00;;
25913;SDS011;13718;50.922;5.346;2022-09-09T09:56:02;5.25;;;0.70;;
25913;SDS011;13718;50.922;5.346;2022-09-09T09:58:33;6.73;;;1.37;;
25913;SDS011;13718;50.922;5.346;2022-09-09T10:01:03;4.60;;;0.98;;
25913;SDS011;13718;50.922;5.346;2022-09-09T10:03:33;9.18;;;1.10;;
25913;SDS011;13718;50.922;5.346;2022-09-09T10:06:06;8.95;;;1.08;;
25913;SDS011;13718;50.922;5.346;2022-09-09T10:08:33;7.50;;;1.15;;
25913;SDS011;13718;50.922;5.346;2022-09-09T10:19:35;7.55;;;1.00;;
25913;SDS011;13718;50.922;5.346;2022-09-09T10:22:04;8.95;;;1.73;;
25913;SDS011;13718;50.922;5.346;2022-09-09T10:30:19;7.90;;;1.67;;
25913;SDS011;13718;50.922;5.346;2022-09-09T10:32:49;6.55;;;1.73;;
25913;SDS011;13718;50.922;5.346;2022-09-09T10:40:26;7.75;;;1.90;;
25913;SDS011;13718;50.922;5.346;2022-09-09T10:42:56;11.35;;;1.80;;
25913;SDS011;13718;50.922;5.346;2022-09-09T10:45:49;6.43;;;1.95;;
25913;SDS011;13718;50.922;5.346;2022-09-09T10:53:31;9.85;;;2.33;;
25913;SDS011;13718;50.922;5.346;2022-09-09T10:56:08;6.90;;;2.28;;
25913;SDS011;13718;50.922;5.346;2022-09-09T11:01:39;12.30;;;2.55;;
25913;SDS011;13718;50.922;5.346;2022-09-09T11:06:45;11.40;;;3.20;;
25913;SDS011;13718;50.922;5.346;2022-09-09T11:09:18;11.38;;;2.95;;
25913;SDS011;13718;50.922;5.346;2022-09-09T11:11:52;11.77;;;2.67;;
25913;SDS011;13718;50.922;5.346;2022-09-09T11:17:18;11.98;;;2.75;;
25913;SDS011;13718;50.922;5.346;2022-09-09T11:19:46;13.25;;;2.78;;
25913;SDS011;13718;50.922;5.346;2022-09-09T11:22:18;12.40;;;2.85;;
25913;SDS011;13718;50.922;5.346;2022-09-09T11:25:06;13.88;;;2.80;;
25913;SDS011;13718;50.922;5.346;2022-09-09T11:36:08;11.45;;;3.00;;
25913;SDS011;13718;50.922;5.346;2022-09-09T11:38:51;12.15;;;2.80;;
25913;SDS011;13718;50.922;5.346;2022-09-09T11:41:22;13.80;;;2.70;;
25913;SDS011;13718;50.922;5.346;2022-09-09T11:43:48;11.35;;;2.45;;
25913;SDS011;13718;50.922;5.346;2022-09-09T11:46:17;13.07;;;3.53;;
25913;SDS011;13718;50.922;5.346;2022-09-09T11:48:57;11.00;;;2.35;;
25913;SDS011;13718;50.922;5.346;2022-09-09T11:51:26;9.02;;;2.20;;
25913;SDS011;13718;50.922;5.346;2022-09-09T11:56:30;10.05;;;1.75;;
25913;SDS011;13718;50.922;5.346;2022-09-09T12:09:42;8.68;;;1.67;;
25913;SDS011;13718;50.922;5.346;2022-09-09T12:12:25;9.23;;;2.20;;
25913;SDS011;13718;50.922;5.346;2022-09-09T12:15:16;11.05;;;2.45;;
25913;SDS011;13718;50.922;5.346;2022-09-09T12:17:46;10.95;;;2.47;;
25913;SDS011;13718;50.922;5.346;2022-09-09T12:31:22;9.40;;;2.17;;
25913;SDS011;13718;50.922;5.346;2022-09-09T12:33:53;6.30;;;1.70;;
25913;SDS011;13718;50.922;5.346;2022-09-09T12:36:19;12.32;;;2.42;;
25913;SDS011;13718;50.922;5.346;2022-09-09T12:38:53;12.55;;;2.10;;
25913;SDS011;13718;50.922;5.346;2022-09-09T12:41:23;6.82;;;1.88;;
25913;SDS011;13718;50.922;5.346;2022-09-09T12:43:50;8.65;;;1.60;;
25913;SDS011;13718;50.922;5.346;2022-09-09T12:46:20;5.38;;;1.92;;
25913;SDS011;13718;50.922;5.346;2022-09-09T12:49:02;6.00;;;1.95;;
25913;SDS011;13718;50.922;5.346;2022-09-09T12:51:29;7.15;;;1.70;;
25913;SDS011;13718;50.922;5.346;2022-09-09T12:53:56;8.15;;;1.60;;
25913;SDS011;13718;50.922;5.346;2022-09-09T12:56:26;4.32;;;1.50;;
25913;SDS011;13718;50.922;5.346;2022-09-09T12:58:55;4.40;;;1.85;;
25913;SDS011;13718;50.922;5.346;2022-09-09T13:03:51;5.50;;;1.58;;
25913;SDS011;13718;50.922;5.346;2022-09-09T13:06:19;8.85;;;1.90;;
25913;SDS011;13718;50.922;5.346;2022-09-09T13:08:56;8.73;;;2.03;;
25913;SDS011;13718;50.922;5.346;2022-09-09T13:14:12;4.22;;;1.60;;
25913;SDS011;13718;50.922;5.346;2022-09-09T13:17:33;5.80;;;1.33;;
25913;SDS011;13718;50.922;5.346;2022-09-09T13:19:43;7.00;;;1.25;;
25913;SDS011;13718;50.922;5.346;2022-09-09T13:27:50;10.18;;;2.05;;
25913;SDS011;13718;50.922;5.346;2022-09-09T13:30:28;11.73;;;1.75;;
25913;SDS011;13718;50.922;5.346;2022-09-09T13:35:34;6.43;;;1.55;;
25913;SDS011;13718;50.922;5.346;2022-09-09T13:38:13;4.93;;;1.08;;
25913;SDS011;13718;50.922;5.346;2022-09-09T13:40:40;3.88;;;1.30;;
25913;SDS011;13718;50.922;5.346;2022-09-09T13:43:20;7.22;;;1.30;;
25913;SDS011;13718;50.922;5.346;2022-09-09T13:45:54;7.40;;;1.25;;
25913;SDS011;13718;50.922;5.346;2022-09-09T13:48:21;5.95;;;1.13;;
25913;SDS011;13718;50.922;5.346;2022-09-09T13:51:01;6.38;;;1.33;;
25913;SDS011;13718;50.922;5.346;2022-09-09T13:53:30;5.32;;;1.00;;
25913;SDS011;13718;50.922;5.346;2022-09-09T13:55:56;12.05;;;1.23;;
25913;SDS011;13718;50.922;5.346;2022-09-09T13:58:23;7.13;;;1.55;;
25913;SDS011;13718;50.922;5.346;2022-09-09T14:00:50;4.85;;;1.17;;
25913;SDS011;13718;50.922;5.346;2022-09-09T14:03:16;5.78;;;1.00;;
25913;SDS011;13718;50.922;5.346;2022-09-09T14:05:43;4.90;;;0.93;;
25913;SDS011;13718;50.922;5.346;2022-09-09T14:08:11;5.43;;;1.27;;
25913;SDS011;13718;50.922;5.346;2022-09-09T14:10:43;8.10;;;1.40;;
25913;SDS011;13718;50.922;5.346;2022-09-09T14:13:09;5.85;;;1.17;;
25913;SDS011;13718;50.922;5.346;2022-09-09T14:15:34;3.67;;;0.90;;
25913;SDS011;13718;50.922;5.346;2022-09-09T14:18:00;4.55;;;1.20;;
25913;SDS011;13718;50.922;5.346;2022-09-09T14:20:27;4.05;;;0.77;;
25913;SDS011;13718;50.922;5.346;2022-09-09T14:22:52;5.00;;;0.88;;
25913;SDS011;13718;50.922;5.346;2022-09-09T14:25:18;5.63;;;0.82;;
25913;SDS011;13718;50.922;5.346;2022-09-09T14:27:44;5.82;;;1.02;;
25913;SDS011;13718;50.922;5.346;2022-09-09T14:30:10;5.68;;;0.85;;
25913;SDS011;13718;50.922;5.346;2022-09-09T14:32:38;5.95;;;1.00;;
25913;SDS011;13718;50.922;5.346;2022-09-09T14:35:03;5.05;;;1.10;;
25913;SDS011;13718;50.922;5.346;2022-09-09T14:37:29;8.50;;;1.10;;
25913;SDS011;13718;50.922;5.346;2022-09-09T14:39:56;4.40;;;0.60;;
25913;SDS011;13718;50.922;5.346;2022-09-09T14:42:22;5.85;;;1.15;;
25913;SDS011;13718;50.922;5.346;2022-09-09T14:44:48;3.85;;;0.80;;
25913;SDS011;13718;50.922;5.346;2022-09-09T14:47:14;2.72;;;0.52;;
25913;SDS011;13718;50.922;5.346;2022-09-09T14:49:39;2.95;;;0.85;;
25913;SDS011;13718;50.922;5.346;2022-09-09T14:52:05;4.13;;;1.02;;
25913;SDS011;13718;50.922;5.346;2022-09-09T14:54:31;4.63;;;0.80;;
25913;SDS011;13718;50.922;5.346;2022-09-09T14:56:57;5.53;;;1.10;;
25913;SDS011;13718;50.922;5.346;2022-09-09T14:59:23;2.53;;;0.70;;
25913;SDS011;13718;50.922;5.346;2022-09-09T15:01:48;2.53;;;0.77;;
25913;SDS011;13718;50.922;5.346;2022-09-09T15:04:14;2.65;;;0.70;;
25913;SDS011;13718;50.922;5.346;2022-09-09T15:06:41;4.35;;;1.00;;
25913;SDS011;13718;50.922;5.346;2022-09-09T15:09:09;5.47;;;0.93;;
25913;SDS011;13718;50.922;5.346;2022-09-09T15:11:35;3.60;;;0.73;;
25913;SDS011;13718;50.922;5.346;2022-09-09T15:14:02;5.05;;;1.00;;
25913;SDS011;13718;50.922;5.346;2022-09-09T15:16:32;3.78;;;0.90;;
25913;SDS011;13718;50.922;5.346;2022-09-09T15:18:59;5.13;;;1.00;;
25913;SDS011;13718;50.922;5.346;2022-09-09T15:21:27;3.38;;;0.95;;
25913;SDS011;13718;50.922;5.346;2022-09-09T15:23:54;3.75;;;0.90;;
25913;SDS011;13718;50.922;5.346;2022-09-09T15:26:20;5.47;;;1.08;;
25913;SDS011;13718;50.922;5.346;2022-09-09T15:28:46;3.80;;;1.00;;
25913;SDS011;13718;50.922;5.346;2022-09-09T15:31:25;2.97;;;0.90;;
25913;SDS011;13718;50.922;5.346;2022-09-09T15:33:56;4.60;;;0.95;;
25913;SDS011;13718;50.922;5.346;2022-09-09T15:36:27;7.43;;;1.10;;
25913;SDS011;13718;50.922;5.346;2022-09-09T15:38:57;5.55;;;1.15;;
25913;SDS011;13718;50.922;5.346;2022-09-09T15:41:24;3.38;;;0.80;;
25913;SDS011;13718;50.922;5.346;2022-09-09T15:43:54;6.43;;;0.90;;
25913;SDS011;13718;50.922;5.346;2022-09-09T15:46:34;3.80;;;0.77;;
25913;SDS011;13718;50.922;5.346;2022-09-09T15:49:05;2.78;;;0.90;;
25913;SDS011;13718;50.922;5.346;2022-09-09T15:51:45;7.15;;;1.40;;
25913;SDS011;13718;50.922;5.346;2022-09-09T15:54:13;4.57;;;0.80;;
25913;SDS011;13718;50.922;5.346;2022-09-09T15:56:43;4.03;;;0.83;;
25913;SDS011;13718;50.922;5.346;2022-09-09T15:59:11;4.05;;;1.10;;
25913;SDS011;13718;50.922;5.346;2022-09-09T16:01:37;4.57;;;0.88;;
25913;SDS011;13718;50.922;5.346;2022-09-09T16:04:04;5.60;;;1.10;;
25913;SDS011;13718;50.922;5.346;2022-09-09T16:06:31;4.13;;;0.98;;
25913;SDS011;13718;50.922;5.346;2022-09-09T16:08:58;4.85;;;1.00;;
25913;SDS011;13718;50.922;5.346;2022-09-09T16:11:26;5.25;;;1.10;;
25913;SDS011;13718;50.922;5.346;2022-09-09T16:13:57;4.30;;;1.10;;
25913;SDS011;13718;50.922;5.346;2022-09-09T16:16:25;7.95;;;1.00;;
25913;SDS011;13718;50.922;5.346;2022-09-09T16:18:56;8.20;;;1.00;;
25913;SDS011;13718;50.922;5.346;2022-09-09T16:21:27;10.85;;;1.00;;
25913;SDS011;13718;50.922;5.346;2022-09-09T16:23:57;6.50;;;1.20;;
25913;SDS011;13718;50.922;5.346;2022-09-09T16:26:25;3.88;;;0.70;;
25913;SDS011;13718;50.922;5.346;2022-09-09T16:28:52;5.43;;;1.10;;
25913;SDS011;13718;50.922;5.346;2022-09-09T16:31:19;6.45;;;0.90;;
25913;SDS011;13718;50.922;5.346;2022-09-09T16:33:47;4.22;;;0.75;;
25913;SDS011;13718;50.922;5.346;2022-09-09T16:36:16;4.55;;;0.90;;
25913;SDS011;13718;50.922;5.346;2022-09-09T16:38:42;4.88;;;0.85;;
25913;SDS011;13718;50.922;5.346;2022-09-09T16:41:09;7.05;;;0.98;;
25913;SDS011;13718;50.922;5.346;2022-09-09T16:43:35;5.93;;;0.98;;
25913;SDS011;13718;50.922;5.346;2022-09-09T16:46:17;3.38;;;0.80;;
25913;SDS011;13718;50.922;5.346;2022-09-09T16:48:44;5.32;;;1.10;;
25913;SDS011;13718;50.922;5.346;2022-09-09T16:51:13;5.03;;;1.00;;
25913;SDS011;13718;50.922;5.346;2022-09-09T16:53:40;5.70;;;0.93;;
25913;SDS011;13718;50.922;5.346;2022-09-09T16:56:19;4.10;;;0.80;;
25913;SDS011;13718;50.922;5.346;2022-09-09T16:58:53;5.28;;;0.77;;
25913;SDS011;13718;50.922;5.346;2022-09-09T17:01:21;3.63;;;1.15;;
25913;SDS011;13718;50.922;5.346;2022-09-09T17:03:47;5.47;;;1.00;;
25913;SDS011;13718;50.922;5.346;2022-09-09T17:06:17;3.03;;;0.98;;
25913;SDS011;13718;50.922;5.346;2022-09-09T17:08:44;2.65;;;0.90;;
25913;SDS011;13718;50.922;5.346;2022-09-09T17:11:14;4.63;;;0.95;;
25913;SDS011;13718;50.922;5.346;2022-09-09T17:13:45;6.68;;;0.90;;
25913;SDS011;13718;50.922;5.346;2022-09-09T17:16:13;4.00;;;1.13;;
25913;SDS011;13718;50.922;5.346;2022-09-09T17:18:41;4.43;;;1.10;;
25913;SDS011;13718;50.922;5.346;2022-09-09T17:21:08;9.60;;;1.08;;
25913;SDS011;13718;50.922;5.346;2022-09-09T17:23:36;5.55;;;0.90;;
25913;SDS011;13718;50.922;5.346;2022-09-09T17:26:03;3.42;;;1.10;;
25913;SDS011;13718;50.922;5.346;2022-09-09T17:28:31;4.18;;;1.20;;
25913;SDS011;13718;50.922;5.346;2022-09-09T17:30:57;3.17;;;0.90;;
25913;SDS011;13718;50.922;5.346;2022-09-09T17:33:26;4.70;;;0.77;;
25913;SDS011;13718;50.922;5.346;2022-09-09T17:35:55;5.88;;;0.90;;
25913;SDS011;13718;50.922;5.346;2022-09-09T17:38:23;4.25;;;1.17;;